sensor_id;sensor_type;location;lat;lon;timestamp;P1;durP1;ratioP1;P2;durP2;ratioP2
16171;SDS011;8192;53.596;10.166;2024-03-23T00:52:43;55.60;;;25.27;;
16171;SDS011;8192;53.596;10.166;2024-03-23T00:55:10;57.93;;;24.73;;
16171;SDS011;8192;53.596;10.166;2024-03-23T00:57:37;41.30;;;24.80;;
16171;SDS011;8192;53.596;10.166;2024-03-23T01:00:04;39.67;;;24.43;;
16171;SDS011;8192;53.596;10.166;2024-03-23T01:02:37;42.30;;;24.47;;
16171;SDS011;8192;53.596;10.166;2024-03-23T01:05:03;48.33;;;24.13;;
16171;SDS011;8192;53.596;10.166;2024-03-23T01:07:30;49.30;;;24.43;;
16171;SDS011;8192;53.596;10.166;2024-03-23T01:09:56;53.33;;;25.87;;
16171;SDS011;8192;53.596;10.166;2024-03-23T01:12:23;45.37;;;24.17;;
16171;SDS011;8192;53.596;10.166;2024-03-23T01:14:49;52.40;;;24.90;;
16171;SDS011;8192;53.596;10.166;2024-03-23T01:17:16;45.53;;;24.73;;
16171;SDS011;8192;53.596;10.166;2024-03-23T01:19:43;43.57;;;25.43;;
16171;SDS011;8192;53.596;10.166;2024-03-23T01:22:10;45.93;;;24.87;;
16171;SDS011;8192;53.596;10.166;2024-03-23T01:24:36;50.10;;;24.33;;
16171;SDS011;8192;53.596;10.166;2024-03-23T01:27:03;44.87;;;24.73;;
16171;SDS011;8192;53.596;10.166;2024-03-23T01:29:29;43.57;;;24.47;;
16171;SDS011;8192;53.596;10.166;2024-03-23T01:31:56;50.43;;;24.70;;
16171;SDS011;8192;53.596;10.166;2024-03-23T01:34:22;46.20;;;24.70;;
16171;SDS011;8192;53.596;10.166;2024-03-23T01:36:51;44.27;;;24.87;;
16171;SDS011;8192;53.596;10.166;2024-03-23T01:39:17;41.73;;;25.13;;
16171;SDS011;8192;53.596;10.166;2024-03-23T01:41:44;44.93;;;25.07;;
16171;SDS011;8192;53.596;10.166;2024-03-23T01:44:10;42.20;;;24.07;;
16171;SDS011;8192;53.596;10.166;2024-03-23T01:46:37;38.63;;;24.03;;
16171;SDS011;8192;53.596;10.166;2024-03-23T01:49:04;46.73;;;24.23;;
16171;SDS011;8192;53.596;10.166;2024-03-23T01:51:31;50.30;;;24.33;;
16171;SDS011;8192;53.596;10.166;2024-03-23T01:54:00;50.93;;;24.33;;
16171;SDS011;8192;53.596;10.166;2024-03-23T01:56:28;40.40;;;24.83;;
16171;SDS011;8192;53.596;10.166;2024-03-23T01:58:55;53.77;;;24.33;;
16171;SDS011;8192;53.596;10.166;2024-03-23T02:01:22;40.90;;;24.07;;
16171;SDS011;8192;53.596;10.166;2024-03-23T02:03:48;42.03;;;24.00;;
16171;SDS011;8192;53.596;10.166;2024-03-23T02:06:15;48.90;;;23.90;;
16171;SDS011;8192;53.596;10.166;2024-03-23T02:08:41;48.07;;;25.13;;
16171;SDS011;8192;53.596;10.166;2024-03-23T02:11:10;56.17;;;24.53;;
16171;SDS011;8192;53.596;10.166;2024-03-23T02:13:36;51.50;;;25.60;;
16171;SDS011;8192;53.596;10.166;2024-03-23T02:16:04;42.20;;;23.40;;
16171;SDS011;8192;53.596;10.166;2024-03-23T02:18:30;40.00;;;24.30;;
16171;SDS011;8192;53.596;10.166;2024-03-23T02:20:57;52.93;;;23.80;;
16171;SDS011;8192;53.596;10.166;2024-03-23T02:23:24;41.93;;;24.00;;
16171;SDS011;8192;53.596;10.166;2024-03-23T02:25:51;45.80;;;23.80;;
16171;SDS011;8192;53.596;10.166;2024-03-23T02:28:18;45.77;;;23.80;;
16171;SDS011;8192;53.596;10.166;2024-03-23T02:30:45;41.83;;;23.57;;
16171;SDS011;8192;53.596;10.166;2024-03-23T02:33:11;60.73;;;24.43;;
16171;SDS011;8192;53.596;10.166;2024-03-23T02:35:38;38.33;;;22.70;;
16171;SDS011;8192;53.596;10.166;2024-03-23T02:38:04;48.40;;;23.83;;
16171;SDS011;8192;53.596;10.166;2024-03-23T02:40:32;39.23;;;23.40;;
16171;SDS011;8192;53.596;10.166;2024-03-23T02:42:58;40.60;;;23.43;;
16171;SDS011;8192;53.596;10.166;2024-03-23T02:45:25;44.50;;;23.27;;
16171;SDS011;8192;53.596;10.166;2024-03-23T02:47:50;36.50;;;22.60;;
16171;SDS011;8192;53.596;10.166;2024-03-23T02:50:18;45.33;;;23.47;;
16171;SDS011;8192;53.596;10.166;2024-03-23T02:52:44;48.67;;;23.43;;
16171;SDS011;8192;53.596;10.166;2024-03-23T02:55:11;55.03;;;24.27;;
16171;SDS011;8192;53.596;10.166;2024-03-23T02:57:38;46.20;;;23.90;;
16171;SDS011;8192;53.596;10.166;2024-03-23T03:00:05;41.47;;;23.53;;
16171;SDS011;8192;53.596;10.166;2024-03-23T03:02:32;40.97;;;22.93;;
16171;SDS011;8192;53.596;10.166;2024-03-23T03:04:59;42.87;;;23.07;;
16171;SDS011;8192;53.596;10.166;2024-03-23T03:07:25;41.70;;;23.47;;
16171;SDS011;8192;53.596;10.166;2024-03-23T03:09:52;42.07;;;23.93;;
16171;SDS011;8192;53.596;10.166;2024-03-23T03:12:18;37.93;;;23.57;;
16171;SDS011;8192;53.596;10.166;2024-03-23T03:14:46;39.33;;;23.53;;
16171;SDS011;8192;53.596;10.166;2024-03-23T03:17:13;44.30;;;23.20;;
16171;SDS011;8192;53.596;10.166;2024-03-23T03:19:41;45.27;;;23.37;;
16171;SDS011;8192;53.596;10.166;2024-03-23T03:22:06;46.10;;;23.73;;
16171;SDS011;8192;53.596;10.166;2024-03-23T03:24:33;42.83;;;24.83;;
16171;SDS011;8192;53.596;10.166;2024-03-23T03:26:59;43.33;;;23.47;;
16171;SDS011;8192;53.596;10.166;2024-03-23T03:29:28;48.97;;;24.13;;
16171;SDS011;8192;53.596;10.166;2024-03-23T03:32:02;41.07;;;22.80;;
16171;SDS011;8192;53.596;10.166;2024-03-23T03:34:29;48.70;;;23.77;;
16171;SDS011;8192;53.596;10.166;2024-03-23T03:36:55;45.13;;;23.40;;
16171;SDS011;8192;53.596;10.166;2024-03-23T03:39:23;44.50;;;23.13;;
16171;SDS011;8192;53.596;10.166;2024-03-23T03:41:49;44.60;;;23.17;;
16171;SDS011;8192;53.596;10.166;2024-03-23T03:44:16;50.17;;;24.30;;
16171;SDS011;8192;53.596;10.166;2024-03-23T03:46:42;42.27;;;24.43;;
16171;SDS011;8192;53.596;10.166;2024-03-23T03:49:11;49.17;;;23.30;;
16171;SDS011;8192;53.596;10.166;2024-03-23T03:51:37;42.83;;;22.97;;
16171;SDS011;8192;53.596;10.166;2024-03-23T03:54:04;48.83;;;24.13;;
16171;SDS011;8192;53.596;10.166;2024-03-23T03:56:30;40.77;;;22.87;;
16171;SDS011;8192;53.596;10.166;2024-03-23T03:58:57;49.80;;;22.77;;
16171;SDS011;8192;53.596;10.166;2024-03-23T04:01:23;52.97;;;23.70;;
16171;SDS011;8192;53.596;10.166;2024-03-23T04:03:50;37.77;;;22.73;;
16171;SDS011;8192;53.596;10.166;2024-03-23T04:06:20;41.63;;;21.93;;
16171;SDS011;8192;53.596;10.166;2024-03-23T04:08:46;43.73;;;23.37;;
16171;SDS011;8192;53.596;10.166;2024-03-23T04:11:12;43.60;;;23.43;;
16171;SDS011;8192;53.596;10.166;2024-03-23T04:13:39;40.37;;;22.60;;
16171;SDS011;8192;53.596;10.166;2024-03-23T04:16:06;35.10;;;22.60;;
16171;SDS011;8192;53.596;10.166;2024-03-23T04:18:35;44.83;;;23.70;;
16171;SDS011;8192;53.596;10.166;2024-03-23T04:21:01;45.40;;;23.47;;
16171;SDS011;8192;53.596;10.166;2024-03-23T04:23:29;42.10;;;22.40;;
16171;SDS011;8192;53.596;10.166;2024-03-23T04:25:55;38.90;;;22.40;;
16171;SDS011;8192;53.596;10.166;2024-03-23T04:28:22;48.33;;;24.20;;
16171;SDS011;8192;53.596;10.166;2024-03-23T04:30:48;42.30;;;22.87;;
16171;SDS011;8192;53.596;10.166;2024-03-23T04:33:15;37.10;;;22.63;;
16171;SDS011;8192;53.596;10.166;2024-03-23T04:35:41;39.17;;;23.43;;
16171;SDS011;8192;53.596;10.166;2024-03-23T04:38:08;30.57;;;22.10;;
16171;SDS011;8192;53.596;10.166;2024-03-23T04:40:36;40.77;;;22.90;;
16171;SDS011;8192;53.596;10.166;2024-03-23T04:43:03;32.20;;;22.90;;
16171;SDS011;8192;53.596;10.166;2024-03-23T04:45:30;47.60;;;23.40;;
16171;SDS011;8192;53.596;10.166;2024-03-23T04:47:58;34.47;;;23.23;;
16171;SDS011;8192;53.596;10.166;2024-03-23T04:50:24;48.30;;;23.23;;
16171;SDS011;8192;53.596;10.166;2024-03-23T04:52:51;34.67;;;22.40;;
16171;SDS011;8192;53.596;10.166;2024-03-23T04:55:17;37.97;;;23.70;;
16171;SDS011;8192;53.596;10.166;2024-03-23T04:57:45;42.73;;;23.13;;
16171;SDS011;8192;53.596;10.166;2024-03-23T05:00:12;32.03;;;23.00;;
16171;SDS011;8192;53.596;10.166;2024-03-23T05:02:43;35.53;;;22.90;;
16171;SDS011;8192;53.596;10.166;2024-03-23T05:05:10;40.97;;;23.87;;
16171;SDS011;8192;53.596;10.166;2024-03-23T05:07:37;34.80;;;23.33;;
16171;SDS011;8192;53.596;10.166;2024-03-23T05:10:03;42.23;;;23.73;;
16171;SDS011;8192;53.596;10.166;2024-03-23T05:12:30;46.50;;;24.20;;
16171;SDS011;8192;53.596;10.166;2024-03-23T05:15:01;54.43;;;23.87;;
16171;SDS011;8192;53.596;10.166;2024-03-23T05:17:28;43.90;;;24.10;;
16171;SDS011;8192;53.596;10.166;2024-03-23T05:19:55;37.87;;;23.00;;
16171;SDS011;8192;53.596;10.166;2024-03-23T05:22:21;42.87;;;23.67;;
16171;SDS011;8192;53.596;10.166;2024-03-23T05:24:48;40.63;;;23.13;;
16171;SDS011;8192;53.596;10.166;2024-03-23T05:27:14;46.97;;;24.07;;
16171;SDS011;8192;53.596;10.166;2024-03-23T05:29:41;47.30;;;24.30;;
16171;SDS011;8192;53.596;10.166;2024-03-23T05:32:08;40.00;;;23.00;;
16171;SDS011;8192;53.596;10.166;2024-03-23T05:34:35;35.37;;;23.07;;
16171;SDS011;8192;53.596;10.166;2024-03-23T05:37:01;33.57;;;22.33;;
16171;SDS011;8192;53.596;10.166;2024-03-23T05:39:28;33.87;;;22.30;;
16171;SDS011;8192;53.596;10.166;2024-03-23T05:41:54;43.90;;;22.77;;
16171;SDS011;8192;53.596;10.166;2024-03-23T05:44:23;43.33;;;22.40;;
16171;SDS011;8192;53.596;10.166;2024-03-23T05:46:49;37.53;;;23.80;;
16171;SDS011;8192;53.596;10.166;2024-03-23T05:49:17;41.10;;;24.00;;
16171;SDS011;8192;53.596;10.166;2024-03-23T05:51:43;35.53;;;23.93;;
16171;SDS011;8192;53.596;10.166;2024-03-23T05:54:10;45.60;;;24.07;;
16171;SDS011;8192;53.596;10.166;2024-03-23T05:56:37;39.23;;;23.40;;
16171;SDS011;8192;53.596;10.166;2024-03-23T05:59:04;38.97;;;23.07;;
16171;SDS011;8192;53.596;10.166;2024-03-23T06:01:29;36.83;;;23.13;;
16171;SDS011;8192;53.596;10.166;2024-03-23T06:03:57;32.80;;;22.53;;
16171;SDS011;8192;53.596;10.166;2024-03-23T06:06:25;43.47;;;23.10;;
16171;SDS011;8192;53.596;10.166;2024-03-23T06:08:52;41.50;;;22.57;;
16171;SDS011;8192;53.596;10.166;2024-03-23T06:11:18;40.83;;;22.90;;
16171;SDS011;8192;53.596;10.166;2024-03-23T06:13:45;40.60;;;22.67;;
16171;SDS011;8192;53.596;10.166;2024-03-23T06:16:10;32.70;;;22.07;;
16171;SDS011;8192;53.596;10.166;2024-03-23T06:18:37;40.80;;;23.17;;
16171;SDS011;8192;53.596;10.166;2024-03-23T06:21:04;40.53;;;23.23;;
16171;SDS011;8192;53.596;10.166;2024-03-23T06:23:40;40.70;;;24.50;;
16171;SDS011;8192;53.596;10.166;2024-03-23T06:26:06;39.30;;;23.10;;
16171;SDS011;8192;53.596;10.166;2024-03-23T06:28:33;50.20;;;23.87;;
16171;SDS011;8192;53.596;10.166;2024-03-23T06:30:59;41.93;;;23.73;;
16171;SDS011;8192;53.596;10.166;2024-03-23T06:33:26;41.67;;;23.00;;
16171;SDS011;8192;53.596;10.166;2024-03-23T06:35:52;36.87;;;22.77;;
16171;SDS011;8192;53.596;10.166;2024-03-23T06:38:19;43.60;;;23.47;;
16171;SDS011;8192;53.596;10.166;2024-03-23T06:40:46;40.83;;;23.67;;
16171;SDS011;8192;53.596;10.166;2024-03-23T06:43:15;35.40;;;23.03;;
16171;SDS011;8192;53.596;10.166;2024-03-23T06:45:43;32.80;;;23.37;;
16171;SDS011;8192;53.596;10.166;2024-03-23T06:48:10;39.93;;;23.97;;
16171;SDS011;8192;53.596;10.166;2024-03-23T06:50:36;33.73;;;23.40;;
16171;SDS011;8192;53.596;10.166;2024-03-23T06:53:03;37.37;;;23.07;;
16171;SDS011;8192;53.596;10.166;2024-03-23T06:55:31;35.90;;;23.10;;
16171;SDS011;8192;53.596;10.166;2024-03-23T06:58:00;32.57;;;22.80;;
16171;SDS011;8192;53.596;10.166;2024-03-23T07:00:26;38.47;;;22.73;;
16171;SDS011;8192;53.596;10.166;2024-03-23T07:02:52;35.90;;;22.63;;
16171;SDS011;8192;53.596;10.166;2024-03-23T07:05:18;29.77;;;22.40;;
16171;SDS011;8192;53.596;10.166;2024-03-23T07:07:45;28.83;;;21.73;;
16171;SDS011;8192;53.596;10.166;2024-03-23T07:10:12;31.67;;;22.43;;
16171;SDS011;8192;53.596;10.166;2024-03-23T07:12:39;38.40;;;23.37;;
16171;SDS011;8192;53.596;10.166;2024-03-23T07:15:07;37.97;;;22.20;;
16171;SDS011;8192;53.596;10.166;2024-03-23T07:17:35;34.37;;;22.40;;
16171;SDS011;8192;53.596;10.166;2024-03-23T07:20:02;31.47;;;22.40;;
16171;SDS011;8192;53.596;10.166;2024-03-23T07:22:30;37.37;;;23.10;;
16171;SDS011;8192;53.596;10.166;2024-03-23T07:24:57;34.90;;;22.03;;
16171;SDS011;8192;53.596;10.166;2024-03-23T07:27:26;28.83;;;22.43;;
16171;SDS011;8192;53.596;10.166;2024-03-23T07:29:51;31.83;;;22.40;;
16171;SDS011;8192;53.596;10.166;2024-03-23T07:32:21;28.23;;;22.50;;
16171;SDS011;8192;53.596;10.166;2024-03-23T07:34:49;34.73;;;22.37;;
16171;SDS011;8192;53.596;10.166;2024-03-23T07:37:16;33.23;;;22.90;;
16171;SDS011;8192;53.596;10.166;2024-03-23T07:39:43;31.87;;;22.20;;
16171;SDS011;8192;53.596;10.166;2024-03-23T07:42:10;35.60;;;22.50;;
16171;SDS011;8192;53.596;10.166;2024-03-23T07:44:36;24.30;;;21.57;;
16171;SDS011;8192;53.596;10.166;2024-03-23T07:47:03;30.47;;;22.57;;
16171;SDS011;8192;53.596;10.166;2024-03-23T07:49:31;29.43;;;22.43;;
16171;SDS011;8192;53.596;10.166;2024-03-23T07:51:58;38.00;;;22.70;;
16171;SDS011;8192;53.596;10.166;2024-03-23T07:54:24;31.63;;;22.47;;
16171;SDS011;8192;53.596;10.166;2024-03-23T07:56:51;29.73;;;22.07;;
16171;SDS011;8192;53.596;10.166;2024-03-23T07:59:18;31.57;;;22.50;;
16171;SDS011;8192;53.596;10.166;2024-03-23T08:01:45;32.97;;;21.53;;
16171;SDS011;8192;53.596;10.166;2024-03-23T08:04:11;32.50;;;22.00;;
16171;SDS011;8192;53.596;10.166;2024-03-23T08:06:40;32.63;;;22.80;;
16171;SDS011;8192;53.596;10.166;2024-03-23T08:09:06;29.47;;;21.63;;
16171;SDS011;8192;53.596;10.166;2024-03-23T08:11:33;33.97;;;22.83;;
16171;SDS011;8192;53.596;10.166;2024-03-23T08:13:59;31.47;;;22.00;;
16171;SDS011;8192;53.596;10.166;2024-03-23T08:16:27;29.13;;;22.67;;
16171;SDS011;8192;53.596;10.166;2024-03-23T08:18:53;30.87;;;22.17;;
16171;SDS011;8192;53.596;10.166;2024-03-23T08:21:21;31.87;;;22.60;;
16171;SDS011;8192;53.596;10.166;2024-03-23T08:23:49;30.40;;;22.30;;
16171;SDS011;8192;53.596;10.166;2024-03-23T08:26:16;27.83;;;22.27;;
16171;SDS011;8192;53.596;10.166;2024-03-23T08:28:43;32.97;;;22.57;;
16171;SDS011;8192;53.596;10.166;2024-03-23T08:31:10;25.00;;;21.77;;
16171;SDS011;8192;53.596;10.166;2024-03-23T08:33:37;26.30;;;23.10;;
16171;SDS011;8192;53.596;10.166;2024-03-23T08:36:06;32.63;;;23.70;;
16171;SDS011;8192;53.596;10.166;2024-03-23T08:38:33;33.63;;;22.53;;
16171;SDS011;8192;53.596;10.166;2024-03-23T08:41:03;29.60;;;22.47;;
16171;SDS011;8192;53.596;10.166;2024-03-23T08:43:33;27.13;;;22.33;;
16171;SDS011;8192;53.596;10.166;2024-03-23T08:46:05;33.07;;;22.23;;
16171;SDS011;8192;53.596;10.166;2024-03-23T08:48:32;34.37;;;22.50;;
16171;SDS011;8192;53.596;10.166;2024-03-23T08:51:01;33.10;;;22.70;;
16171;SDS011;8192;53.596;10.166;2024-03-23T08:53:27;25.57;;;22.00;;
16171;SDS011;8192;53.596;10.166;2024-03-23T08:55:55;27.27;;;21.77;;
16171;SDS011;8192;53.596;10.166;2024-03-23T08:58:23;29.57;;;22.03;;
16171;SDS011;8192;53.596;10.166;2024-03-23T09:00:51;29.77;;;22.00;;
16171;SDS011;8192;53.596;10.166;2024-03-23T09:03:17;30.47;;;21.93;;
16171;SDS011;8192;53.596;10.166;2024-03-23T09:05:44;25.47;;;21.57;;
16171;SDS011;8192;53.596;10.166;2024-03-23T09:08:10;32.35;;;22.02;;
16171;SDS011;8192;53.596;10.166;2024-03-23T09:10:38;28.27;;;21.53;;
16171;SDS011;8192;53.596;10.166;2024-03-23T09:13:04;27.85;;;22.05;;
16171;SDS011;8192;53.596;10.166;2024-03-23T09:15:33;28.57;;;21.23;;
16171;SDS011;8192;53.596;10.166;2024-03-23T09:18:00;28.67;;;21.27;;
16171;SDS011;8192;53.596;10.166;2024-03-23T09:20:26;24.90;;;21.47;;
16171;SDS011;8192;53.596;10.166;2024-03-23T09:22:52;25.98;;;21.85;;
16171;SDS011;8192;53.596;10.166;2024-03-23T09:25:19;26.35;;;21.25;;
16171;SDS011;8192;53.596;10.166;2024-03-23T09:27:45;22.70;;;20.52;;
16171;SDS011;8192;53.596;10.166;2024-03-23T09:30:13;25.92;;;21.95;;
16171;SDS011;8192;53.596;10.166;2024-03-23T09:32:40;23.27;;;20.70;;
16171;SDS011;8192;53.596;10.166;2024-03-23T09:35:08;22.92;;;20.60;;
16171;SDS011;8192;53.596;10.166;2024-03-23T09:37:34;27.33;;;21.35;;
16171;SDS011;8192;53.596;10.166;2024-03-23T09:40:01;22.60;;;20.58;;
16171;SDS011;8192;53.596;10.166;2024-03-23T09:42:27;27.80;;;21.50;;
16171;SDS011;8192;53.596;10.166;2024-03-23T09:44:55;23.77;;;21.20;;
16171;SDS011;8192;53.596;10.166;2024-03-23T09:47:24;27.23;;;21.83;;
16171;SDS011;8192;53.596;10.166;2024-03-23T09:49:53;22.13;;;20.33;;
16171;SDS011;8192;53.596;10.166;2024-03-23T09:52:20;22.67;;;20.50;;
16171;SDS011;8192;53.596;10.166;2024-03-23T09:54:46;28.17;;;21.17;;
16171;SDS011;8192;53.596;10.166;2024-03-23T09:57:12;22.17;;;20.03;;
16171;SDS011;8192;53.596;10.166;2024-03-23T09:59:39;22.17;;;20.03;;
16171;SDS011;8192;53.596;10.166;2024-03-23T10:02:05;22.77;;;20.40;;
16171;SDS011;8192;53.596;10.166;2024-03-23T10:04:36;22.00;;;20.13;;
16171;SDS011;8192;53.596;10.166;2024-03-23T10:07:11;23.35;;;20.67;;
16171;SDS011;8192;53.596;10.166;2024-03-23T10:09:38;24.30;;;22.13;;
16171;SDS011;8192;53.596;10.166;2024-03-23T10:12:08;24.00;;;21.40;;
16171;SDS011;8192;53.596;10.166;2024-03-23T10:14:37;29.17;;;21.85;;
16171;SDS011;8192;53.596;10.166;2024-03-23T10:17:14;24.25;;;21.33;;
16171;SDS011;8192;53.596;10.166;2024-03-23T10:19:42;22.47;;;20.57;;
16171;SDS011;8192;53.596;10.166;2024-03-23T10:22:09;31.30;;;21.63;;
16171;SDS011;8192;53.596;10.166;2024-03-23T10:24:39;23.00;;;21.10;;
16171;SDS011;8192;53.596;10.166;2024-03-23T10:27:05;24.00;;;21.80;;
16171;SDS011;8192;53.596;10.166;2024-03-23T10:29:32;24.00;;;21.30;;
16171;SDS011;8192;53.596;10.166;2024-03-23T10:32:07;25.93;;;21.70;;
16171;SDS011;8192;53.596;10.166;2024-03-23T10:34:35;28.00;;;21.40;;
16171;SDS011;8192;53.596;10.166;2024-03-23T10:37:01;24.07;;;21.53;;
16171;SDS011;8192;53.596;10.166;2024-03-23T10:39:31;23.23;;;20.47;;
16171;SDS011;8192;53.596;10.166;2024-03-23T10:42:00;22.97;;;20.50;;
16171;SDS011;8192;53.596;10.166;2024-03-23T10:44:29;22.95;;;20.83;;
16171;SDS011;8192;53.596;10.166;2024-03-23T10:46:56;22.50;;;20.27;;
16171;SDS011;8192;53.596;10.166;2024-03-23T10:49:26;22.10;;;20.02;;
16171;SDS011;8192;53.596;10.166;2024-03-23T10:51:58;22.30;;;19.97;;
16171;SDS011;8192;53.596;10.166;2024-03-23T10:54:25;23.13;;;20.67;;
16171;SDS011;8192;53.596;10.166;2024-03-23T10:56:53;22.43;;;20.30;;
16171;SDS011;8192;53.596;10.166;2024-03-23T10:59:28;22.00;;;20.07;;
16171;SDS011;8192;53.596;10.166;2024-03-23T11:01:56;25.33;;;21.07;;
16171;SDS011;8192;53.596;10.166;2024-03-23T11:04:30;22.48;;;20.25;;
16171;SDS011;8192;53.596;10.166;2024-03-23T11:06:56;20.70;;;19.07;;
16171;SDS011;8192;53.596;10.166;2024-03-23T11:09:39;24.40;;;20.50;;
16171;SDS011;8192;53.596;10.166;2024-03-23T11:12:26;24.37;;;20.40;;
16171;SDS011;8192;53.596;10.166;2024-03-23T11:15:00;22.63;;;20.37;;
16171;SDS011;8192;53.596;10.166;2024-03-23T11:17:27;23.33;;;21.00;;
16171;SDS011;8192;53.596;10.166;2024-03-23T11:19:55;23.37;;;21.27;;
16171;SDS011;8192;53.596;10.166;2024-03-23T11:22:38;24.20;;;21.73;;
16171;SDS011;8192;53.596;10.166;2024-03-23T11:25:15;23.33;;;20.30;;
16171;SDS011;8192;53.596;10.166;2024-03-23T11:27:44;24.80;;;20.40;;
16171;SDS011;8192;53.596;10.166;2024-03-23T11:30:15;21.23;;;19.58;;
16171;SDS011;8192;53.596;10.166;2024-03-23T11:32:55;22.30;;;20.20;;
16171;SDS011;8192;53.596;10.166;2024-03-23T11:35:29;22.20;;;20.38;;
16171;SDS011;8192;53.596;10.166;2024-03-23T11:38:12;21.98;;;19.90;;
16171;SDS011;8192;53.596;10.166;2024-03-23T11:40:43;22.33;;;20.48;;
16171;SDS011;8192;53.596;10.166;2024-03-23T11:43:12;22.80;;;20.27;;
16171;SDS011;8192;53.596;10.166;2024-03-23T11:45:40;21.67;;;19.50;;
16171;SDS011;8192;53.596;10.166;2024-03-23T11:48:08;21.67;;;19.92;;
16171;SDS011;8192;53.596;10.166;2024-03-23T11:50:36;22.23;;;20.25;;
16171;SDS011;8192;53.596;10.166;2024-03-23T11:53:06;22.48;;;20.40;;
16171;SDS011;8192;53.596;10.166;2024-03-23T11:55:39;21.05;;;19.50;;
16171;SDS011;8192;53.596;10.166;2024-03-23T11:58:06;22.00;;;19.88;;
16171;SDS011;8192;53.596;10.166;2024-03-23T12:00:35;23.25;;;19.40;;
16171;SDS011;8192;53.596;10.166;2024-03-23T12:03:01;21.25;;;19.67;;
16171;SDS011;8192;53.596;10.166;2024-03-23T12:05:28;20.75;;;19.45;;
16171;SDS011;8192;53.596;10.166;2024-03-23T12:10:44;21.25;;;19.25;;
16171;SDS011;8192;53.596;10.166;2024-03-23T12:13:14;21.20;;;19.20;;
16171;SDS011;8192;53.596;10.166;2024-03-23T12:15:44;21.65;;;19.63;;
16171;SDS011;8192;53.596;10.166;2024-03-23T12:18:10;23.30;;;21.30;;
16171;SDS011;8192;53.596;10.166;2024-03-23T12:20:38;23.43;;;21.63;;
16171;SDS011;8192;53.596;10.166;2024-03-23T12:23:04;25.00;;;23.00;;
16171;SDS011;8192;53.596;10.166;2024-03-23T12:25:32;26.57;;;24.37;;
16171;SDS011;8192;53.596;10.166;2024-03-23T12:27:59;42.43;;;26.73;;
16171;SDS011;8192;53.596;10.166;2024-03-23T12:30:26;29.20;;;26.70;;
16171;SDS011;8192;53.596;10.166;2024-03-23T12:32:53;27.87;;;25.63;;
16171;SDS011;8192;53.596;10.166;2024-03-23T12:35:20;26.37;;;24.20;;
16171;SDS011;8192;53.596;10.166;2024-03-23T12:37:46;23.77;;;21.97;;
16171;SDS011;8192;53.596;10.166;2024-03-23T12:40:16;24.73;;;22.57;;
16171;SDS011;8192;53.596;10.166;2024-03-23T12:42:42;25.17;;;22.67;;
16171;SDS011;8192;53.596;10.166;2024-03-23T12:45:08;23.23;;;21.30;;
16171;SDS011;8192;53.596;10.166;2024-03-23T12:47:34;23.47;;;21.47;;
16171;SDS011;8192;53.596;10.166;2024-03-23T12:50:03;23.53;;;21.03;;
16171;SDS011;8192;53.596;10.166;2024-03-23T12:52:31;22.70;;;20.60;;
16171;SDS011;8192;53.596;10.166;2024-03-23T12:54:58;22.83;;;20.63;;
16171;SDS011;8192;53.596;10.166;2024-03-23T12:57:23;23.10;;;21.30;;
16171;SDS011;8192;53.596;10.166;2024-03-23T12:59:51;23.30;;;21.60;;
16171;SDS011;8192;53.596;10.166;2024-03-23T13:02:18;24.13;;;22.33;;
16171;SDS011;8192;53.596;10.166;2024-03-23T13:04:46;24.70;;;22.90;;
16171;SDS011;8192;53.596;10.166;2024-03-23T13:07:15;24.60;;;22.83;;
16171;SDS011;8192;53.596;10.166;2024-03-23T13:09:43;26.33;;;23.93;;
16171;SDS011;8192;53.596;10.166;2024-03-23T13:12:09;25.47;;;23.63;;
16171;SDS011;8192;53.596;10.166;2024-03-23T13:14:37;26.23;;;24.30;;
16171;SDS011;8192;53.596;10.166;2024-03-23T13:17:03;27.43;;;25.13;;
16171;SDS011;8192;53.596;10.166;2024-03-23T13:19:30;26.77;;;24.47;;
16171;SDS011;8192;53.596;10.166;2024-03-23T13:21:56;25.97;;;23.83;;
16171;SDS011;8192;53.596;10.166;2024-03-23T13:24:25;25.33;;;23.40;;
16171;SDS011;8192;53.596;10.166;2024-03-23T13:26:52;26.20;;;23.83;;
16171;SDS011;8192;53.596;10.166;2024-03-23T13:29:19;26.23;;;24.20;;
16171;SDS011;8192;53.596;10.166;2024-03-23T13:31:45;25.03;;;22.80;;
16171;SDS011;8192;53.596;10.166;2024-03-23T13:34:13;23.70;;;21.57;;
16171;SDS011;8192;53.596;10.166;2024-03-23T13:36:40;23.83;;;21.93;;
16171;SDS011;8192;53.596;10.166;2024-03-23T13:39:08;23.43;;;21.53;;
16171;SDS011;8192;53.596;10.166;2024-03-23T13:41:38;22.63;;;20.83;;
16171;SDS011;8192;53.596;10.166;2024-03-23T13:44:05;23.13;;;21.30;;
16171;SDS011;8192;53.596;10.166;2024-03-23T13:46:32;22.83;;;21.00;;
16171;SDS011;8192;53.596;10.166;2024-03-23T13:48:59;23.50;;;21.50;;
16171;SDS011;8192;53.596;10.166;2024-03-23T13:51:25;23.87;;;21.87;;
16171;SDS011;8192;53.596;10.166;2024-03-23T13:53:53;23.70;;;21.60;;
16171;SDS011;8192;53.596;10.166;2024-03-23T13:56:19;23.23;;;21.07;;
16171;SDS011;8192;53.596;10.166;2024-03-23T13:58:48;23.23;;;21.03;;
16171;SDS011;8192;53.596;10.166;2024-03-23T14:01:14;23.17;;;20.90;;
16171;SDS011;8192;53.596;10.166;2024-03-23T14:03:41;23.20;;;21.20;;
16171;SDS011;8192;53.596;10.166;2024-03-23T14:06:07;22.30;;;20.40;;
16171;SDS011;8192;53.596;10.166;2024-03-23T14:08:34;22.53;;;20.17;;
16171;SDS011;8192;53.596;10.166;2024-03-23T14:11:04;22.10;;;20.30;;
16171;SDS011;8192;53.596;10.166;2024-03-23T14:13:31;21.50;;;19.90;;
16171;SDS011;8192;53.596;10.166;2024-03-23T14:15:59;22.50;;;20.57;;
16171;SDS011;8192;53.596;10.166;2024-03-23T14:18:26;22.60;;;20.83;;
16171;SDS011;8192;53.596;10.166;2024-03-23T14:20:52;22.53;;;20.73;;
16171;SDS011;8192;53.596;10.166;2024-03-23T14:23:24;21.70;;;19.87;;
16171;SDS011;8192;53.596;10.166;2024-03-23T14:25:52;22.30;;;20.58;;
16171;SDS011;8192;53.596;10.166;2024-03-23T14:28:21;22.45;;;20.60;;
16171;SDS011;8192;53.596;10.166;2024-03-23T14:30:47;21.65;;;19.85;;
16171;SDS011;8192;53.596;10.166;2024-03-23T14:33:17;20.35;;;18.70;;
16171;SDS011;8192;53.596;10.166;2024-03-23T14:35:51;21.63;;;19.73;;
16171;SDS011;8192;53.596;10.166;2024-03-23T14:38:19;21.55;;;19.58;;
16171;SDS011;8192;53.596;10.166;2024-03-23T14:40:45;21.65;;;19.85;;
16171;SDS011;8192;53.596;10.166;2024-03-23T14:43:14;21.90;;;20.00;;
16171;SDS011;8192;53.596;10.166;2024-03-23T14:45:45;22.15;;;20.23;;
16171;SDS011;8192;53.596;10.166;2024-03-23T14:48:34;21.80;;;19.80;;
16171;SDS011;8192;53.596;10.166;2024-03-23T14:51:00;22.20;;;20.10;;
16171;SDS011;8192;53.596;10.166;2024-03-23T14:53:29;22.90;;;20.50;;
16171;SDS011;8192;53.596;10.166;2024-03-23T14:55:55;22.45;;;20.25;;
16171;SDS011;8192;53.596;10.166;2024-03-23T14:58:22;21.50;;;19.70;;
16171;SDS011;8192;53.596;10.166;2024-03-23T15:00:49;21.65;;;19.80;;
16171;SDS011;8192;53.596;10.166;2024-03-23T15:03:16;21.40;;;19.67;;
16171;SDS011;8192;53.596;10.166;2024-03-23T15:05:44;23.03;;;20.47;;
16171;SDS011;8192;53.596;10.166;2024-03-23T15:08:18;23.70;;;21.10;;
16171;SDS011;8192;53.596;10.166;2024-03-23T15:10:44;21.95;;;20.13;;
16171;SDS011;8192;53.596;10.166;2024-03-23T15:13:11;24.17;;;21.57;;
16171;SDS011;8192;53.596;10.166;2024-03-23T15:15:38;24.57;;;22.17;;
16171;SDS011;8192;53.596;10.166;2024-03-23T15:18:06;24.70;;;22.60;;